Aviation Digital Data Service (ADDS)

Output produced by METARs form (0735 UTC 31 October 2014)
found at http://aviationweather.gov/adds/metars/
 
KATL 310732Z 3108/0112 31006KT P6SM SKC 
     FM311400 32008KT P6SM SCT120 
     FM311900 31012G20KT P6SM BKN080 
     FM010100 33018G28KT P6SM BKN025 
     PROB30 0101/0106 6SM -SHRA 
     FM011000 33020G30KT P6SM BKN035